events-overview

Kinetic Half

 

Overall Men

Lake Anna State Park - Spotsylvania, VA 5/12/2012 07:00AM

** Results are for the private use of participants and are the Intellectual Property of Set Up Events. Unauthorized use of these results is prohibited.

Place Bib Co Ag S NAME city/state DQ Rank SWIM Rank T1 Rank BIKE Rank T2 Rank RUN PENALTY TIME DQ
1190 37MMike GadzinskiSicklerville NJ 200:25:33200:01:31202:16:572800:01:03601:24:59 04:10:01 
2286 42MKelly WilliamsonFairfax VA 2400:29:274300:02:08102:14:54500:00:461301:28:14 04:15:27 
3188 37MBrady DehoustOak Hill VA 5400:31:217400:02:261802:25:57400:00:45201:23:08 04:23:36 
4203 38MAndrew LipscombAlexandria VA 5000:31:131400:01:511902:26:035800:01:21301:23:12 04:23:37 
5627 43MDeshon DavisCary NC 4300:30:594600:02:101102:23:112100:01:001701:30:00 04:27:17 
6166 35MFabrice GuillaumeAshburn VA 3300:30:32400:01:351002:22:223400:01:062201:31:46 04:27:19 
799 31MEric JohnsonPittsburgh PA 5500:31:252000:01:583202:29:263300:01:05501:24:12 04:28:05 
8100 31MRyan MyersGainesville VA 1300:27:401000:01:46702:20:443900:01:084301:37:40 04:28:57 
992 30MJustin MoyerRichmond VA 1500:27:585600:02:15302:18:474400:01:111001:26:4800:12:0004:28:58 
10131 34MMatt MauclairAspinwall PA 2800:29:571900:01:572402:26:593200:01:051401:29:03 04:28:59 
11165 35MRobert GreenMidlothian VA 1900:28:451200:01:492102:26:23300:00:432501:32:00 04:29:38 
12118 33MRyan ReighnHaddon Township NJ 1100:27:327200:02:261502:24:383800:01:081901:30:5900:04:0004:30:40 
13255 40MDavid SteeleStafford VA 4600:31:05800:01:441302:23:49800:00:541501:29:3500:04:0004:31:05 
14199 38MJoel BellVirginia Beach VA 7300:32:173500:02:051702:25:251200:00:551101:27:4700:04:0004:32:27 
1546 25MJames RobichaudWashington DC 700:26:534000:02:082702:27:494000:01:093601:34:35 04:32:32 
16164 35MBart ForsythWoodbridge VA 7500:32:255300:02:13402:18:496800:01:224501:37:52 04:32:40 
17282 42MDarren RentchWashington DC 4800:31:054200:02:082302:26:329200:01:282101:31:34 04:32:46 
18256 40MMichael StevensonArlington VA 400:26:235200:02:132902:28:538900:01:273401:34:15 04:33:10 
1955 27MMatt MlachakPoquoson VA 11200:34:143600:02:06902:21:038300:01:274201:36:48 04:35:36 
20301 43MSteve RussellSeverna Park MD 4500:31:0414700:03:085402:33:4510100:01:32901:26:20 04:35:47 
21276 42MAnthony GuidaSilver Spring MD 3800:30:449800:02:422202:26:2411000:01:341801:30:3900:04:0004:36:01 
22304 43MRobert StraznitskasTiverton RI 3900:30:44700:01:444202:32:056300:01:212001:31:02 04:36:53 
23130 34MDavid LoewensteinerLusby MD 1600:28:011700:01:555802:34:254100:01:092701:32:54 04:38:23 
2413MM29MChristian MooneyhamAlexandria VA 23400:39:236500:02:215302:33:37600:00:48101:23:06 04:39:13 
25208 39MDaniel EdwardsWashington DC 3100:30:088600:02:343502:30:031500:00:572301:31:5200:04:0004:39:32 
266 39MBrian TaddikenArlington VA 7200:32:115000:02:136502:35:40200:00:382401:31:59 04:42:39 
27189 37MBryan FrankGaithersburg MD 2200:29:196700:02:236602:36:031300:00:563301:34:12 04:42:51 
28318 44MTed WaughSpringfield VA 11300:34:1515000:03:103402:29:5018900:02:053201:34:11 04:43:28 
29262 41MTerry Mannion JrWest Chester PA 5300:31:218000:02:304502:32:355700:01:204001:36:27 04:44:12 
30185 36MChad WolfAlexandria VA 3700:30:414900:02:124102:31:593500:01:073501:34:1800:04:0004:44:15 
PlaceBibCoAgSNAMEcity/stateDQRankSWIMRankT1RankBIKERankT2RankRUNPENALTYTIMEDQ
31204 38MSloan MannWashington DC 4000:30:541100:01:462502:27:10900:00:545501:39:3400:04:0004:44:16 
3291 30MChrisopher MoralesStephens City VA 21900:38:4211700:02:50802:20:5116400:01:526201:40:53 04:45:07 
33105 32MLuke HartigWashington DC 11600:34:241800:01:565502:33:525100:01:173101:33:58 04:45:26 
3412MM30MNicholas BrownArlington VA 900:27:227800:02:2914802:45:1311500:01:351601:29:46 04:46:23 
35527 41MRyan GrovePittsburgh PA 2300:29:227900:02:296002:34:396100:01:215201:39:06 04:46:55 
36445 52MRichard BrokawLewes DE 9500:33:2028700:04:395902:34:3322000:02:222601:32:26 04:47:19 
37298 43MGlenn OlsenRockville MD 12400:34:4212000:02:511202:23:212700:01:028401:45:30 04:47:25 
38429 50MAnthony FelitteDelmar NY 29200:41:4813000:03:012002:26:0413100:01:413801:34:59 04:47:32 
39261 41MMatt KempleBelmar NJ 9200:33:116300:02:203602:30:467600:01:256101:40:44 04:48:24 
40373 47MMichael BabaSilver Spring MD 12000:34:3513300:03:023102:29:1411100:01:345901:40:34 04:48:58 
41123 34MWesley BrownAlexandria VA 1400:27:567600:02:274602:32:358600:01:278201:45:21 04:49:45 
42101 31MMichael WolfeVirginia Beach VA 10900:34:0616800:03:188602:38:451900:00:593001:33:13 04:50:19 
43359 45MSaulius PuskoriusReston VA 10800:34:0420600:03:404402:32:2512400:01:394901:38:50 04:50:37 
44281 42MTodd NewnamWashington DC 300:26:213300:02:048002:37:5913000:01:414801:38:3700:04:0004:50:41 
45110 33MJack BasileMacungie PA 6200:31:442100:01:584302:32:10700:00:537501:44:29 04:51:12 
465MM39MRoland KentSuffolk VA 12900:34:482900:02:022802:28:303600:01:077901:44:49 04:51:13 
47195 37MBrian McCuneVa Beach VA 1000:27:31600:01:414002:31:326600:01:2210701:49:22 04:51:26 
4829 21MJohn BaldwinReston VA 500:26:288200:02:329602:40:048400:01:276401:41:14 04:51:43 
49109 32MBlake SaksaBaltimore MD 3400:30:335800:02:173702:31:114200:01:093701:34:5100:12:0004:51:59 
50405 49MTim McCrearyRichmond VA 5800:31:3112100:02:535602:33:579900:01:326901:42:28 04:52:19 
5157 27MJesse ShaulisHollsopple PA 9400:33:182800:02:022602:27:375900:01:218101:45:1800:04:0004:53:34 
5224 19MIain AlexandridisPrinceton, NJ 6000:31:344800:02:103302:29:454700:01:1210301:49:01 04:53:40 
5344 25MEric HallDurham NC 17300:36:4611300:02:4817202:47:139800:01:32701:25:31 04:53:48 
5449 26MDrew MillerWest Chester PA 9800:33:2415100:03:1019902:50:305000:01:16801:26:02 04:54:20 
55404 49MEric MackemReston VA 10400:33:5310100:02:433802:31:2212900:01:408901:46:14 04:55:50 
56246 40MCraig EllisHerndon VA 11800:34:2820500:03:403902:31:2525600:02:437301:43:54 04:56:08 
57169 35MJohn SchallerReston VA 12700:34:475400:02:141602:25:135500:01:1913001:53:08 04:56:39 
58501 64MWilliam WrenArlington VA 3200:30:1512900:03:017802:37:354900:01:157801:44:46 04:56:51 
59369 46MEric MooreCharlottesville VA 9300:33:145700:02:164802:32:405600:01:199601:47:23 04:56:51 
6051 27MTrevor AlbertWilliamsburg VA 14200:35:21300:01:337202:36:423700:01:085101:39:0400:04:0004:57:44 
6150 26MCorey MillerWilliamsburg VA 4200:30:5820200:03:4011102:41:3522300:02:245301:39:11 04:57:46 
PlaceBibCoAgSNAMEcity/stateDQRankSWIMRankT1RankBIKERankT2RankRUNPENALTYTIMEDQ
62107 32MStephen MohrArlington VA 100:25:26900:01:4521402:52:066500:01:224401:37:45 04:58:22 
63128 34MJeff JoynerFredericksburg VA 10000:33:333000:02:024902:32:5510800:01:3410101:48:44 04:58:45 
64200 38MGreg CroffordFairfax Station VA 10200:33:443400:02:0510302:40:579100:01:286001:40:40 04:58:53 
65481 56MMark LongRoanoke VA 8800:32:548100:02:317102:36:381100:00:559301:46:39 04:59:35 
66124 34MMark ConoverArlington VA 6100:31:3620000:03:3813602:43:3720800:02:145401:39:19 05:00:22 
6790 30MLogan JohnsonVirginia Beach VA 14900:35:3825400:04:167702:37:3110500:01:336701:42:02 05:00:58 
6845 25MBenjamin LooknerArlington VA 2900:29:5925000:04:1319402:49:4434300:04:552801:33:11 05:02:00 
69385MM48MRocco ArmondaSilver Spring MD 22500:38:5616500:03:173002:28:599400:01:3010801:49:24 05:02:03 
70264 41MPavol PopovicWashington DC 8900:33:0211500:02:498502:38:426000:01:219401:46:53 05:02:45 
71386 48MKenneth DownerMechanicsburg PA 14700:35:3710600:02:4613302:43:172400:01:005801:40:24 05:03:02 
72258 41MTimothy CornellBurlington VT 18700:37:1113400:03:027402:36:443000:01:038601:45:41 05:03:39 
73437 51MLawrence BowersChesapeake VA 18000:37:0215200:03:109002:39:0622200:02:236801:42:11 05:03:50 
74193 37MEric LaceyOakton VA 27600:41:0013900:03:045202:33:2219000:02:057701:44:38 05:04:07 
75477 55MPaul PattersonWyncote PA 21000:38:1816900:03:206302:35:1812700:01:408501:45:38 05:04:12 
76119 33MBrian SchwatkenFredericksburg VA 9000:33:0518500:03:2711502:41:4914400:01:467401:44:21 05:04:26 
7767 29MDenis MoffettBallston Lake NY 17100:36:3814800:03:086202:35:1124200:02:369501:46:59 05:04:31 
78456 53MJohn MazurArlington VA 12300:34:4129700:04:488902:39:0225500:02:417201:43:45 05:04:55 
79317 44MRoger SeikenLincoln Ave VA 26700:40:4710200:02:4410002:40:4516000:01:525001:38:53 05:04:59 
80179 36MThomas PulhamWashington DC 9600:33:2128000:04:3413202:43:0432700:04:095701:40:13 05:05:19 
81292 43MPaul EppersCary NC 20700:38:0931000:05:0714302:44:067000:01:234101:36:42 05:05:26 
82253 40MMarty McKennaPittsburgh PA 3500:30:358500:02:3311902:42:032500:01:0010601:49:19 05:05:28 
83167 35MJeffery PlattZelienople PA 20300:37:5619800:03:3719002:49:277500:01:242901:33:12 05:05:34 
84170 35MTravis SiehndelWashington DC 14800:35:388400:02:336402:35:191400:00:5611701:51:19 05:05:43 
85272 42MRalph ButlerChesapeake VA 10600:33:563700:02:0616402:46:2521400:02:176501:41:35 05:06:18 
86450 52MPaul IngholtVienna VA 1800:28:276000:02:178402:38:4111300:01:3514701:55:35 05:06:33 
87181 36MAndrew UnsickerLorton VA 26400:40:3925800:04:1910402:41:0023500:02:324701:38:17 05:06:45 
88367 46MWes HayesDumfries VA 8700:32:53100:01:305002:33:05100:00:3217501:59:10 05:07:08 
89366 46MStephen FilauriCoraopolis PA 13600:35:064500:02:0916002:45:485300:01:187001:42:51 05:07:11 
90216 39MBrent MillerSouth Riding VA 6800:31:5321400:03:4714102:44:0021200:02:178701:45:41 05:07:36 
91354 45MChris HaasWilliamsburg VA 15200:35:4327400:04:297302:36:4216200:01:5210201:49:01 05:07:46 
92486 57MPaul SpencerRemington VA 9100:33:106600:02:227002:36:2910600:01:3314501:55:06 05:08:37 
PlaceBibCoAgSNAMEcity/stateDQRankSWIMRankT1RankBIKERankT2RankRUNPENALTYTIMEDQ
93306 43MEmil VelasquezCary NC 10100:33:357300:02:266902:36:1813300:01:4113701:54:40 05:08:39 
94212 39MBen JonesAshburn VA 7400:32:2117500:03:2215202:45:2615200:01:509101:46:34 05:09:32 
9517MM20MJoel ElenbaasHudsonville MI 600:26:3023400:03:5823402:54:5532800:04:155601:39:57 05:09:32 
9660 28MDarren HammanWexford PA 4700:31:0516700:03:1821702:52:3313200:01:416301:41:05 05:09:40 
97220 39MJames RawlinsCharles Town WV 23600:39:2825100:04:1415002:45:142200:01:003901:35:5200:04:0005:09:46 
9854 27MNick LivyCary NC 13300:34:559300:02:3911302:41:471000:00:5411101:49:33 05:09:47 
9958 28MJohn CooperMechanicsville VA 23500:39:2519100:03:307602:37:1519800:02:109701:47:36 05:09:55 
100132 34MKristofer ShieldsWashington DC 15600:35:5414900:03:0811402:41:4926700:02:519201:46:34 05:10:14 
1019MM37MJustin KalinskiWashington DC 5900:31:3314600:03:0720302:51:0827700:02:576601:41:45 05:10:28 
102314 44MKen KoppenhaverFairport NY 2100:29:0317800:03:2416602:46:3915000:01:4811201:50:13 05:11:06 
103211 39MNathan HowesPort Royal VA 19100:37:2321500:03:4711802:41:5516300:01:529001:46:27 05:11:23 
104284 42MPaul TalbotNokesville VA 10300:33:5115300:03:116102:34:561800:00:5816501:58:34 05:11:28 
105362 45MDavid WilliamsAlexandria VA 31100:43:2124300:04:055102:33:0712600:01:4010901:49:24 05:11:35 
106436 51MMichael BaldwinRichmond VA 21500:38:2816000:03:148302:38:2918000:02:0111001:49:29 05:11:40 
107271 41MRob WrightGlen Allen VA 13200:34:5530900:05:0512402:42:3026200:02:479801:47:38 05:12:53 
108171 35MMichael ThorntonMoseley VA 8300:32:473100:02:047902:37:4315500:01:5017001:58:51 05:13:13 
109174 36MR. Brad BellRaleigh NC 19800:37:3818000:03:259102:39:1610300:01:3312101:51:42 05:13:32 
110430 50MCraig HagoodApex NC 15100:35:419500:02:409202:39:256900:01:2313801:54:40 05:13:46 
11188 30MGrant GartonWashington DC 31400:43:297700:02:2810502:41:018500:01:278801:45:53 05:14:17 
112104 32MShane DanaherSuffolk VA 14000:35:177000:02:2512602:42:434800:01:1512901:52:59 05:14:36 
113482 56MDave TiplerReston VA 4400:31:0222000:03:5114702:44:537400:01:2414101:54:52 05:16:00 
114267 41MTom VasiliauskasChapel Hill NC 11400:34:1827500:04:3213402:43:2314500:01:4612301:52:06 05:16:03 
11569 29MChad WallaceAlexandria VA 19900:37:4323600:03:5813502:43:2418500:02:0310401:49:04 05:16:11 
116289 43MJeff DavisFairfax VA 6600:31:5114500:03:0718002:47:575400:01:1812401:52:22 05:16:32 
117210 39MChristopher HolbrookBethesda MD 11700:34:286100:02:1913802:43:4412100:01:3813501:54:29 05:16:36 
118115 33MScott LearyWashington DC 13800:35:125500:02:1412002:42:083100:01:0415201:56:37 05:17:14 
119187 37MJoe CoffeyReston VA 3000:30:062200:01:5916802:46:501600:00:5716001:57:41 05:17:32 
120370 46MMark TaylorRoanoke VA 12600:34:4619300:03:3212802:42:539700:01:3114601:55:21 05:18:01 
121295 43MDewey JonesVirginia Beach VA 16600:36:235100:02:138702:38:4610200:01:3218001:59:56 05:18:48 
122122 34MKore BendixBristow VA 8200:32:448300:02:3212102:42:1516100:01:5217801:59:46 05:19:07 
123218 39MBryan PeacheyRaleigh NC 16900:36:3219700:03:3714602:44:294500:01:1213301:53:53 05:19:41 
PlaceBibCoAgSNAMEcity/stateDQRankSWIMRankT1RankBIKERankT2RankRUNPENALTYTIMEDQ
12415MM27MDan O'ConnorWilliamsburg VA 17400:36:4615900:03:1311202:41:3824400:02:3714801:55:58 05:20:10 
125496 61MTom KeeleyChesapeake VA 21400:38:2614200:03:0512302:42:217900:01:2614301:54:56 05:20:12 
126394 48MChristopher VaughanWashington DC 5600:31:2510000:02:4315702:45:4418800:02:0516701:58:39 05:20:34 
127215 39MDouglas MeyerFredericksburg VA 7600:32:2618700:03:3016902:46:5120300:02:1211901:51:3900:04:0005:20:36 
128623 38MPaul CrawfordVirginia Beach VA 10500:33:5422700:03:5316502:46:2713600:01:4314401:55:00 05:20:55 
129310 44MMatthew FahyChesterfield VA 6500:31:5016400:03:1717102:47:1126900:02:5215101:56:26 05:21:34 
13047 26MJustin FritzWashington DC 6900:31:542700:02:0115302:45:286400:01:2218502:00:54 05:21:37 
131249 40MKevin GreenGaithersburg MD 18100:37:039100:02:395702:34:0917000:01:5621502:05:57 05:21:42 
132221 39MChristian SchultzAlexandria VA 16000:36:0029200:04:4318602:48:4218700:02:0411601:50:59 05:22:28 
133447 52MTim DuffeyArlington VA 18500:37:0619000:03:3017402:47:2413400:01:4312701:52:50 05:22:31 
134305 43MNathan TaggOlney MD 12100:34:4026000:04:2016702:46:4530300:03:2713101:53:27 05:22:37 
135444 52MAsa BeaversApex NC 11500:34:2112300:02:5515402:45:286200:01:2116801:58:39 05:22:42 
13689 30MThomas HenryWashington DC 19000:37:2120300:03:4017302:47:1819500:02:0712501:52:29 05:22:54 
137382 47MBobby Spencer-StrongBurlington NC 17800:36:5311200:02:4813102:43:018700:01:2717101:59:02 05:23:09 
138252 40MReza MahbodArlington VA 27200:40:5621000:03:4518302:48:2223100:02:309901:47:55 05:23:26 
139449 52MTom GruverLexington Park MD 4900:31:0817400:03:2210702:41:1117200:01:5721402:05:54 05:23:30 
140443 51MVincent OrtizChesapeake VA 24300:39:4715500:03:1228403:00:5523200:02:304601:37:59 05:24:21 
141388 48MJames GodekVa Beach VA 22000:38:4330600:05:0011602:41:5014700:01:4615801:57:21 05:24:38 
142116 33MRich MyersFairfax VA 11100:34:099700:02:4222102:52:478800:01:2713201:53:38 05:24:41 
1437MM38MNate SeymourAlexandria VA 15800:35:5627300:04:294702:32:3620000:02:1223802:09:36 05:24:47 
144406 49MRobert MoodyDurham NC 18800:37:153200:02:046702:36:099000:01:2722702:08:01 05:24:54 
145173 35MBrandon YourczekStafford VA 25400:40:1910400:02:4617702:47:4220100:02:1212201:51:58 05:24:54 
146103 32MJeff BerggrenAlexandria VA 24600:39:5611900:02:5015502:45:297700:01:2515001:56:09 05:25:47 
147299 43MChristopher PoulosVirginia Beach VA 23000:39:0810300:02:4513902:43:458200:01:2717401:59:05 05:26:08 
148360 45MRobert RiekChesapeake VA 11000:34:076800:02:2312502:42:3912300:01:3920802:05:27 05:26:13 
149106 32MKenneth KeskeConcord NC 12200:34:402500:02:0020002:50:402000:00:5916401:58:19 05:26:37 
1503MM40MChristopher MartinoVirginia Beach VA 7000:31:5826800:04:2220102:50:5216800:01:5516101:57:48 05:26:54 
151511C37MRob StoneWarrenton VA 15500:35:4711400:02:4911702:41:5117100:01:5620502:05:03 05:27:25 
152457 53MKen NailCharlottesville VA 14400:35:2421100:03:4620602:51:252900:01:0314901:56:09 05:27:44 
153400 49MMike HuddlestonLexington NC 12500:34:4417300:03:2114902:45:1413700:01:4419102:02:52 05:27:53 
154127 34MThomas GenareoLakewood NY 23900:39:397100:02:2520802:51:3712800:01:4012801:52:55 05:28:14 
PlaceBibCoAgSNAMEcity/stateDQRankSWIMRankT1RankBIKERankT2RankRUNPENALTYTIMEDQ
15530 21MTom CampbellCharlottesville VA 8500:32:501300:01:5012702:42:457300:01:2321002:05:3100:04:0005:28:18 
156293 43MVernon HallCentreville VA 25500:40:2128400:04:376802:36:1115700:01:5120902:05:29 05:28:28 
157476 55MThomas JonesAshburn VA 17500:36:4720700:03:4124602:56:3420500:02:1310501:49:18 05:28:32 
158498 61MBob YoungMcLean VA 18600:37:0722600:03:538802:38:5817900:02:0122002:06:48 05:28:45 
159114 33MMichael FleckensteinSterling VA 28900:41:3810800:02:4613002:42:548000:01:2618402:00:27 05:29:08 
1608MM37MJoel FreyenhagenStone Ridge VA 22700:39:0229900:04:5114202:44:0126500:02:4816601:58:36 05:29:15 
161407 49MSerge VanderbreetstraetenAlexandria VA 18200:37:0413700:03:0312202:42:1722500:02:2420202:04:44 05:29:30 
162307 44MMichael BennettReston VA 20600:37:5930100:04:5222602:54:0330800:03:358301:45:2600:04:0005:29:54 
163453 53MJoey BairdArlington VA 22100:38:4931100:05:099302:39:3024500:02:3719502:04:08 05:30:12 
164312 44MDavid GreenOak Hill VA 30000:42:3412700:03:0113702:43:387100:01:2318102:00:05 05:30:39 
16537 24MMatthew WentworthArlington VA 8600:32:5114000:03:0517602:47:3011400:01:3521902:06:03 05:31:02 
166513C36MJason StahlVirginia Beach VA 26600:40:4420900:03:459802:40:3415900:01:5119902:04:19 05:31:12 
167192 37MDrew IrmischerYorktown VA 15000:35:3925300:04:1523302:54:4617600:01:5913601:54:36 05:31:13 
168387 48MMike FlanaganStafford VA 7800:32:3415700:03:1319702:50:1210400:01:3319602:04:11 05:31:41 
169499 63MJohn GregoryRoanoke VA 16500:36:1913600:03:0318102:47:586700:01:2219202:03:02 05:31:43 
17061 28MTravis HedgepethRaleigh NC 30200:42:4819900:03:3816202:46:0919100:02:0615501:57:04 05:31:43 
171163 35MMike BrownBrambleton VA 29800:42:1211800:02:5018802:49:132300:01:0015301:56:45 05:31:58 
172183 36MDavid WarnerWashington DC 15900:35:5724400:04:0625302:57:2827800:02:5812001:51:39 05:32:06 
173309 44MDavid CulbertsonRaleigh NC 22800:39:0220800:03:4428603:01:0830100:03:258001:44:58 05:32:16 
174113 33MBrian EkeyBlacksburg VA 7900:32:3516600:03:1716302:46:2212200:01:3820302:04:5000:04:0005:32:41 
175544NM42MW. Troy StuartStafford VA 23200:39:1527200:04:2824902:57:1111900:01:3711301:50:14 05:32:43 
176126 34MGarrett DawsonArlington VA 4100:30:5611100:02:4821202:51:5813900:01:4418802:01:3300:04:0005:32:57 
17742 25MChris BoscoVienna VA 2000:29:0012200:02:5431003:07:4814200:01:4511801:51:37 05:33:02 
17897 31MChristopher BradleyVirginia Beach VA 22200:38:515900:02:177502:37:115200:01:1725502:13:37 05:33:12 
179302 43MJack SmithWashington DC 17700:36:5018300:03:2717902:47:5727000:02:5316201:58:0700:04:0005:33:13 
180172 35MPeter ViscardoWayne PA 21100:38:2023300:03:5727602:59:5825000:02:3910001:48:38 05:33:31 
18114MM28MPaul SilverWilliamsburg VA 23800:39:3734500:06:1015802:45:4720400:02:1318202:00:10 05:33:55 
182353 45MAlberto GonzalezRockville MD 18900:37:1726300:04:2122202:53:0323300:02:3015601:57:06 05:34:15 
183297 43MKevin McGarrityMarlton NJ 27400:40:5729100:04:4228803:02:1331200:03:427101:43:30 05:35:02 
184440 51MMichael GarciaAlexandria VA 2600:29:5519200:03:3018902:49:2518300:02:0224202:10:37 05:35:27 
18595 30MJonathan StewartWashington DC 19700:37:3324600:04:0914002:43:4728500:03:0522202:06:56 05:35:29 
PlaceBibCoAgSNAMEcity/stateDQRankSWIMRankT1RankBIKERankT2RankRUNPENALTYTIMEDQ
186517MC53MAl NavidiRockville MD 35200:48:4523800:04:009402:39:4111700:01:3618902:01:41 05:35:42 
187512C36MDavid KeyScott Afb IL 20100:37:5114100:03:0524102:55:4220600:02:1416301:58:11 05:37:00 
188196 37MBenjamin PhelpsWashington DC 17600:36:4812800:03:0111002:41:311700:00:5726102:14:49 05:37:05 
189222 39MMatt WebsterAshburn VA 14600:35:3318100:03:2627703:00:009300:01:3015401:56:57 05:37:23 
190168 35MJoseph RubinoSouth Riding VA 26900:40:504400:02:0914502:44:2517300:01:5823202:08:15 05:37:34 
19187 30MMatt AuneSouth Riding VA 28200:41:192400:02:009502:39:4513800:01:4425202:12:49 05:37:35 
192277 42MStephen HattwickWashington DC 14500:35:2614400:03:0623702:55:2916600:01:5419002:02:12 05:38:06 
193521MC48MTim DolinkaCrofton MD 30300:42:4831600:05:1410102:40:5018100:02:0122902:08:08 05:38:59 
19434 24MAnthony LapekasChesapeake VA 2700:29:5620100:03:3925502:57:3619400:02:0721602:05:59 05:39:16 
195133 34MTodd StaffordLeesburg VA 13700:35:1124900:04:1222702:54:0515600:01:5118302:00:1200:04:0005:39:29 
196547NM40MBilly KendrickAlexandria VA 16300:36:0713100:03:0222802:54:0916500:01:5220102:04:23 05:39:31 
197248 40MAdrian FloresAshburn VA 30800:43:0717200:03:2121302:52:0521900:02:2117301:59:05 05:39:57 
198273 42MJohn CarpenterRichmond VA 22600:39:0027000:04:2725902:57:5931100:03:4014201:54:54 05:39:59 
19936 24MJeff WaltonPalmyra VA 6300:31:479000:02:3824802:56:499500:01:3122302:07:33 05:40:16 
200268 41MDavid VielbigAshburn VA 20900:38:1324000:04:029702:40:1626600:02:4926302:15:07 05:40:26 
201111 33MKen CuddebackPotomac Falls VA 28000:41:0515600:03:1217002:47:0829200:03:1221302:05:52 05:40:27 
20253 27MPaul KozlowskiHubert NC 25100:40:092600:02:0112902:42:5329800:03:2225102:12:39 05:41:02 
2034MM39MDick JoyceTemecula VA 34200:47:0716100:03:1410602:41:0217800:02:0022602:08:00 05:41:22 
204446 52MKenneth ClaffeySalisbury NC 29400:41:5616200:03:1624002:55:3911200:01:3517701:59:42 05:42:06 
205549NM36MBo SinkWinston Salem NC 28100:41:1818600:03:2825402:57:307200:01:2316901:58:50 05:42:26 
206390 48MAndrew MazurGainesville VA 28500:41:2627900:04:3422002:52:4331500:03:4418602:01:01 05:43:25 
20716MM21MDaniel McClellanAnnapolis MD 5700:31:2729600:04:4826802:58:4711800:01:3722102:06:50 05:43:27 
208525MC42MDavid AldridgeRaleigh NC 29000:41:3823100:03:5617802:47:5220900:02:1523002:08:08 05:43:47 
209313 44MTrey HaskellHarrisonburg VA 10700:33:5623900:04:018102:38:1028300:03:0029602:24:47 05:43:53 
210121 34MBrian BannWashington DC 29700:42:0922500:03:5225102:57:1530500:03:3015701:57:17 05:44:03 
211505 67MJohn HunnicuttGlen Allen VA         11501:50:44 05:44:48 
212303 43MChristopher SperonWashington DC 20400:37:5732400:05:2122402:53:3224700:02:3921102:05:32 05:44:59 
213117 33MCory NewmanCuleper VA 13400:34:5615800:03:1327002:59:1630000:03:2519802:04:18 05:45:05 
21432 22MAlexander FirehammerLexington VA 26300:40:3710500:02:4629703:05:2412500:01:4013901:54:47 05:45:11 
215214 39MBrent McDufieChesapeake VA 26800:40:4813500:03:0321002:51:4314900:01:4822802:08:01 05:45:21 
216383 47MJim StrohmanBeaverdam VA 25200:40:1019400:03:3420202:51:0714000:01:4423902:10:04 05:46:37 
PlaceBibCoAgSNAMEcity/stateDQRankSWIMRankT1RankBIKERankT2RankRUNPENALTYTIMEDQ
217259 41MRich GroveMcLean VA 25700:40:2732800:05:3219102:49:3229500:03:1523102:08:09 05:46:53 
218194 37MEric LazersonStafford VA 20800:38:1132200:05:2019602:50:1030200:03:2624002:10:07 05:47:13 
21952 27MAustin JacksonFairfax VA 3600:30:3915400:03:1230603:06:3510000:01:3221202:05:48 05:47:43 
220519MC52MSkip Johnson JrWoodbridge VA 36100:52:2624200:04:0434903:24:3928900:03:09401:23:35 05:47:52 
22198 31MJacob HalladayArlington VA 11900:34:3021900:03:5023902:55:3418200:02:0224802:12:18 05:48:12 
222629 55MMark BareRichmond VA 33200:46:002300:01:5920502:51:2528000:02:5821802:06:01 05:48:20 
223308 44MDavid ConnorFairfax VA 29900:42:1910700:02:4619202:49:3415400:01:5024502:11:52 05:48:20 
224548NM36MChad AlthiserStafford VA 33300:46:0021600:03:4823602:55:2725800:02:4515901:57:2300:04:0005:49:22 
225311 44MWolfram GottschalkVienna VA 5100:31:1732100:05:2021602:52:3025300:02:4027502:17:58 05:49:43 
226384 47MSteve VekonyArlington VA 20200:37:5333200:05:3727502:59:5424600:02:3819302:03:45 05:49:45 
227515C34MShawn BuddenhagenVirginia Beach VA 28600:41:2718800:03:3010802:41:2619900:02:1029102:21:35 05:50:06 
22822 18MJonathan LowryBethesda MD 21700:38:339900:02:4331103:07:588100:01:2617901:59:47 05:50:26 
22959 28MBrandon DeweyVirginia Beach VA 1700:28:2023700:04:0026902:59:0317400:01:5827202:17:29 05:50:49 
230389 48MBrian HamVienna VA 27300:40:5725900:04:1918202:48:0231000:03:3825902:14:36 05:51:30 
231551NM34MTodd NifongHigh Point NC 26000:40:3224500:04:0932303:12:4111600:01:3612601:52:37 05:51:33 
232434 50MJohn SzczygielArlington VA 27700:41:0122800:03:5419502:49:5713500:01:4326202:15:06 05:51:39 
233175 36MBrian GilbertSpringfield VA 13000:34:5113200:03:0229803:05:2527900:02:5820702:05:27 05:51:41 
234290 43MJoseph DelorenzoAlexandria VA 21300:38:2322200:03:5223202:54:4214600:01:4625802:13:44 05:52:24 
235500 64MLarry AtkinsWashington DC 31800:44:1026500:04:2124202:55:4522800:02:2721702:05:59 05:52:41 
236102 32MJerrad AckermanFredericksburg VA 29100:41:4110900:02:4726702:58:3522900:02:2722502:07:44 05:53:13 
237487 58MJim MyersGainesville VA 8000:32:3611000:02:4729603:04:179600:01:3124702:12:11 05:53:21 
238180 36MEduardo SardinaWashington DC 17000:36:3325700:04:1826502:58:3015300:01:5024902:12:24 05:53:33 
239461 53MRichard SutherlandChapel Hill NC 17900:36:5823500:03:5820402:51:234600:01:1228502:20:37 05:54:06 
240630 45MJames HewittCary NC 33100:45:5933700:05:4828503:01:0221100:02:1617601:59:14 05:54:17 
241177 36MLester LiuFairfax VA 19300:37:2531700:05:1824302:55:4828600:03:0525702:13:43 05:55:18 
242207 39MBrandon ArthurWashington DC 31700:44:0822400:03:5228203:00:2325900:02:4619702:04:13 05:55:19 
243433 50MAndrew SteinfeldSilver Spring MD 35600:50:1228200:04:3630403:06:1730900:03:3811401:50:38 05:55:20 
244375 47MMarv ClineMoseley VA 35400:49:3113800:03:0418702:48:5822600:02:2524602:12:07 05:56:03 
245553NM32MNeil HalonenN. Bethesda MD 15700:35:5535700:07:2428103:00:1532400:04:0023702:09:20 05:56:52 
246478 55MGlenn YoungMattaponi VA 18300:37:046400:02:2124402:56:1017500:01:5928302:19:46 05:57:17 
2472MM41MPat McCuenCamp Lejeune NC 5200:31:214100:02:0827102:59:2319600:02:0829302:22:46 05:57:43 
PlaceBibCoAgSNAMEcity/stateDQRankSWIMRankT1RankBIKERankT2RankRUNPENALTYTIMEDQ
248162 35MJoseph BelloWashington DC 21600:38:3114300:03:0521902:52:4221600:02:1827002:17:1100:04:0005:57:46 
249260MC41MJeff HalperDerwood MD 22900:39:0517600:03:2328003:00:0921500:02:1825402:13:30 05:58:24 
250479 56MRob BarnwellSilver Spring MD 13900:35:1519600:03:3629903:05:4725200:02:4025002:12:36 05:59:52 
251357 45MRichard JenretteWashington DC 16700:36:2427600:04:3325702:57:4934600:05:0526602:16:29 06:00:18 
252316 44MJames RosenRichmond VA 28300:41:2229000:04:4033903:18:1120200:02:1213401:54:11 06:00:34 
253270 41MShawn WebbConcord NC 28700:41:321500:01:5125802:57:5210700:01:3327702:18:23 06:01:10 
25420 17MJamey GreenbaumBethesda MD 31000:43:2033600:05:4630003:05:4822400:02:2419402:04:07 06:01:22 
25596 30MFrank WeldeleDevon PA 17200:36:4522300:03:5230203:06:0914800:01:4625302:13:14 06:01:43 
256520MC52MAllen SimcoeFredericksburg VA 30100:42:4124100:04:0418502:48:4235000:05:2028902:21:09 06:01:54 
257363 45MRobert WoodsStafford VA 33000:45:5812600:02:5827903:00:0510900:01:3424302:11:22 06:01:55 
258379 47MMark MullenArlington VA 27800:41:0118900:03:3023002:54:1721800:02:2128802:20:58 06:02:06 
25962 28MPatrick RaineyWashington DC 9900:33:3021800:03:5030103:05:4926000:02:4626802:16:47 06:02:40 
260497 61MBill McManusStafford VA 31500:43:4326200:04:2016102:46:0627100:02:5329802:25:39 06:02:40 
26163 29MPiyush AggarwalaArlington VA 36300:54:3717000:03:2126002:58:0023000:02:3020002:04:19 06:02:45 
26293 30MLuke StehouwerNew York NY 31300:43:2921700:03:4822302:53:1334900:05:1726902:17:01 06:02:47 
263399 49MJohn HarrisCarrollton GA 25300:40:1732000:05:1924502:56:1034100:04:3826502:16:25 06:02:48 
264458 53MEd NorlanderCulpeper VA 25600:40:256900:02:2425202:57:2826400:02:4728702:20:54 06:03:56 
265518MC53MJohn TowerAnnapolis MD 27500:41:0035400:07:0521102:51:4528100:02:5827102:17:2400:04:0006:04:11 
266391 48MHugh MooneyWashington DC 24500:39:5332500:05:3125002:57:1335600:06:5426002:14:48 06:04:16 
267403 49MRichard LeverCary NC 26200:40:3527100:04:2728703:01:3216900:01:5526702:16:39 06:05:06 
268380 47MJames RoushWoodbridge VA 32500:45:1824700:04:0929403:04:0324900:02:3923602:09:01 06:05:08 
269402 49MYung KimHerndon VA 35700:51:0411600:02:4929503:04:1421700:02:1820602:05:24 06:05:47 
270378 47MJeffrey LeverShelton CT 19200:37:2417100:03:2121802:52:3823800:02:3430202:26:0600:04:0006:06:00 
271223 39MRussell WodiskaFalls Church VA 30900:43:1020400:03:4024702:56:4626100:02:4629002:21:20 06:07:40 
272285 42MCollin TatuskoWashington DC 6700:31:5225600:04:1629203:03:4214100:01:4430502:26:47 06:08:19 
273490 59MJim WaterhouseValatie NY 32600:45:2333800:05:5221502:52:1727300:02:5527902:19:1600:04:0006:09:40 
274205 38MMatt McCormackAlexandria VA 27000:40:5027700:04:3423502:55:1923700:02:3330402:26:42 06:09:57 
275254 40MJohn PercherkeBristow VA 34500:47:2126900:04:2231203:08:5826800:02:5122402:07:43 06:11:14 
276507C39MMark LyonsLansing MI 19400:37:2623000:03:5515602:45:3624100:02:3532802:41:57 06:11:27 
27725 19MThomas DelacourBethesda MD 22400:38:5517900:03:2533203:16:0125700:02:4524102:10:28 06:11:32 
27868 29MJacob Stevens-KittnerWashington DC 14300:35:2221200:03:4735203:25:5215800:01:5120402:04:58 06:11:48 
PlaceBibCoAgSNAMEcity/stateDQRankSWIMRankT1RankBIKERankT2RankRUNPENALTYTIMEDQ
279431 50MDan KryszczukSpotsylvania VA 32900:45:5631200:05:1122502:53:3515100:01:4930102:26:04 06:12:35 
280398 49MSteven FeldmanWashington DC 6400:31:4932900:05:3222902:54:1728800:03:0932302:39:47 06:14:33 
281120 33MFrantisek SovaTowson MD 33500:46:1930000:04:5131703:10:1322700:02:2724402:11:22 06:15:10 
282546NM40MJeremy BahrDunwoody GA 35900:51:5336300:08:2629003:02:2633000:04:1723502:08:45 06:15:45 
283622 45MRamon Abreu-PerezVirginia Beach VA 36600:56:3028500:04:3832503:13:3922100:02:2317201:59:05 06:16:12 
284435 50MJames WatsonMickleton NJ 34700:47:2429800:04:4927402:59:3731700:03:4728602:20:47 06:16:21 
285315 44MDavid KoppenhaverChesapeake VA 22300:38:517500:02:2623802:55:3214300:01:4532102:38:22 06:16:55 
286485 57MMohsen SofastaiiChantilly VA 24400:39:5319500:03:3533103:15:2719700:02:1026402:15:53 06:16:55 
287266 41MChris SimonRumson NJ 25800:40:2828800:04:3929303:03:4831900:03:5129502:24:44 06:17:29 
28866 29MJonathan JarrettVirginia Beach VA 36000:52:1125500:04:1628303:00:3525400:02:4027302:17:50 06:17:30 
289528MC41MGregory MageeFalls Church VA 27100:40:5332600:05:3120702:51:3532100:03:5231602:35:49 06:17:38 
290459 53MFrank RexfordChapel Hill NC 32200:44:4726700:04:2230903:07:4527600:02:5727602:18:10 06:17:59 
291288 43MJoshua BruchMidlothian VA 28400:41:2530500:04:5832203:12:1023900:02:3527402:17:54 06:19:00 
292257 41MBrett CoffeeBurke VA 29300:41:5518400:03:2715902:45:4823600:02:3333502:45:40 06:19:22 
293206 38MMichael ScottNorfolk VA 33600:46:3231500:05:1426102:58:0127400:02:5630602:27:20 06:19:59 
294217 39MJohn MorrisWinston-Salem NC 20500:37:588700:02:3523102:54:2420700:02:1433302:43:08 06:20:16 
295269 41MThomas WeaverOlney MD 15300:35:4434400:06:1033703:17:3024300:02:3728102:19:29 06:21:28 
296516C34MBrandon SmithRichmond VA 18400:37:069600:02:4226602:58:3129300:03:1232402:40:10 06:21:38 
297514C35MAndrew JonesSterling VA 23100:39:1412400:02:5519802:50:1833300:04:2232902:41:5900:04:0006:22:46 
298291 43MEric EdgeMechanicsville MD 24800:39:5630400:04:5727202:59:3431600:03:4531502:35:43 06:23:54 
299502 65MMichael ShieldsHoneoye Falls NY 32000:44:1522900:03:5430703:07:1229400:03:1530302:26:29 06:25:03 
30086 30MMichael AikenNewport News VA 13100:34:5434000:06:0429103:02:4333800:04:3531802:36:56 06:25:10 
301209 39MJay HildrethAlexandria VA 8400:32:5028900:04:4027803:00:0234200:04:5033202:43:00 06:25:20 
302626 49MPhilip DeeterWashington DC 35500:49:3934600:06:1733603:17:2730400:03:2823402:08:30 06:25:20 
303397 49MGlenn ByrdWoodbine MD 16800:36:2536100:07:5332403:13:0333900:04:3529402:23:34 06:25:29 
304483 57MRene FarissVirginia Beach VA 33900:46:3930800:05:0328903:02:1433500:04:2730702:27:34 06:25:55 
305274 42MTodd GastonStafford VA 26100:40:3433300:05:3733003:14:3735100:05:2528402:20:08 06:26:20 
30656 27MMichael NiebrzydowskiBaltimore MD 26500:40:4336200:07:5530303:06:1731800:03:5131002:28:32 06:27:16 
307488 58MMasaki TakahashiMcLean VA 33400:46:0725200:04:1425602:57:4419300:02:0631902:37:07 06:27:17 
308504 67MJames HozikGreat Falls VA 32400:45:1736500:09:1736203:33:4433100:04:1714001:54:47 06:27:20 
309278 42MRobert HerbMedford NJ 31600:43:488900:02:3726402:58:2924800:02:3933102:42:52 06:30:23 
PlaceBibCoAgSNAMEcity/stateDQRankSWIMRankT1RankBIKERankT2RankRUNPENALTYTIMEDQ
310287 43MJim AlvisAshburn VA 23300:39:2236000:07:4532103:11:5432500:04:0031102:31:03 06:34:04 
311510C37MTim GretenArlington VA 13500:35:0023200:03:5731803:10:3421000:02:1633002:42:22 06:34:07 
312178 36MRob McAndrewWarrenton VA 24200:39:4224800:04:1236003:32:3832600:04:0125602:13:37 06:34:08 
313427 50MPaul DavisPotomac Falls VA 34300:47:1128100:04:3531603:10:0830700:03:3230002:25:5700:04:0006:35:21 
314368 46MPaul KwiatkowskiDerwood MD 34000:46:4326600:04:2232603:13:4532000:03:5230802:27:58 06:36:38 
315451 52MMichael SchrantzKing George VA 24700:39:5629300:04:4430503:06:2732900:04:1732002:37:3600:04:0006:36:57 
316365 46MJames BorcheltHavre De Grace MD 21200:38:2131400:05:1331503:09:5829100:03:1032502:40:50 06:37:30 
317624C35MMatthew HallArlington VA 16400:36:1733500:05:4335403:28:0328700:03:0729902:25:53 06:39:02 
318455 53MDouglas HartmanSpringfield VA 36901:03:2628600:04:3831403:09:3329600:03:2027802:18:30 06:39:25 
319263 41MWilliam PellinenArlington VA 34900:47:5035100:06:3634603:22:2332200:03:5428002:19:28 06:40:09 
320506 67MTerrence TimkoN. Huntingdon PA 31900:44:1121300:03:4720902:51:3828400:03:0034603:01:05 06:43:40 
321545NM41MChad CollinsRaleigh NC 32300:44:4835300:06:4530803:07:1334000:04:3732702:41:15 06:44:36 
322489 59MTheodore LeonardSmithfield VA 24900:40:0434300:06:1031303:09:2331400:03:4333602:46:20 06:45:38 
32323 18MDaniel SackBethesda MD 25900:40:3130700:05:0036503:49:5217700:01:5923302:08:22 06:45:42 
324526MC42MT.J. PrieurPenn Laird VA 33800:46:3836800:14:5334703:23:0416700:01:5528202:19:35 06:46:03 
325460 53MDennis Lee RigginsChurch Road VA 34100:46:5030200:04:5634403:20:2923400:02:3131302:33:45 06:48:29 
326300 43MJames RinellaLynchburg VA 16100:36:0131300:05:1232003:11:1035800:08:0633902:49:00 06:49:28 
32764 29MEric GraceArlington VA 30600:43:0132700:05:3131903:11:0731300:03:4333702:46:33 06:49:54 
328452 52MRoy WatersBrookeville, MD 28800:41:3234700:06:1932703:14:2433400:04:2233802:46:44 06:53:19 
329395 49MDean AskewLeesburg VA 32700:45:2433000:05:3435803:30:2334400:04:5630902:28:14 06:54:30 
33021 17MJoey NewfeldHuntington WV 23700:39:3033100:05:3636403:45:3918400:02:0229202:22:24 06:55:10 
331543NM50MAlex McKeagueSeverna Park MD 36400:55:3431800:05:1832803:14:3733200:04:1831702:35:50 06:55:35 
332245 40MJay CochranMontgomery Village MD 35800:51:5035200:06:3834103:18:3427200:02:5431202:32:1000:04:0006:56:04 
333428 50MMichael EuripidesFredericksburg VA 24000:39:4029500:04:4835003:25:2327500:02:5734002:49:37 07:02:23 
334358 45MFredrik NymanGreat Falls VA 34800:47:4435500:07:1735903:31:2632300:03:5732602:40:54 07:11:17 
335294 43MAndrew HartVirginia Beach VA 14100:35:1827800:04:3434803:23:0935700:06:5634703:02:08 07:12:02 
336392 48MMark NewfeldHuntington WV 31200:43:2332300:05:2134003:18:2224000:02:3534803:03:59 07:13:38 
337439 51MMichael EllisonRockville MD 36500:56:0935900:07:3635703:30:1934800:05:1631402:34:49 07:14:08 
33810MM36MMatthew GreyQuantico VA 35300:49:1334100:06:0735603:29:2734700:05:0833402:44:41 07:14:34 
339503 66MRick RiceBurke VA 35000:48:0434800:06:2536303:39:5529700:03:2132202:38:56 07:16:38 
340524MC43MJohn PanekBowie MD 33700:46:3729400:04:4435503:28:5730600:03:3134202:54:53 07:18:40 
PlaceBibCoAgSNAMEcity/stateDQRankSWIMRankT1RankBIKERankT2RankRUNPENALTYTIMEDQ
341552NM33MTimothy BrainardAlexandria VA 30500:42:5935800:07:2635103:25:4035500:06:2534302:56:59 07:19:27 
34211MM36MTravis MandigoMechanicsville MD 7700:32:3328300:04:3634303:19:4025100:02:3935003:24:48 07:24:14 
343296 43MJ. Pryor LindseyCourtland VA 35100:48:2031900:05:1932903:14:3735200:05:2534903:11:52 07:25:31 
344442 51MGeorge NicopoulosFairfax VA 32800:45:5136400:09:0536703:58:1635400:06:1729702:25:2300:04:0007:28:50 
345202 38MBrian LigaCrofton MD 19600:37:3336900:35:5134503:21:2726300:02:4734502:58:53 07:36:28 
346509C38MPeter BauceGreat Mills MD 34600:47:2133900:05:5833303:16:2234500:05:0035103:27:00 07:41:39 
34743 25MTimothy CaptainLinthicum Heights MD 30400:42:5536700:10:2433403:16:2233700:04:3135303:34:23 07:48:32 
34865 29MAndy GuzikAnnapolis MD 34400:47:1134200:06:0733503:16:2633600:04:2835203:34:22 07:48:32 
349523MC45MJohn McLeesMidlothian VA 36700:57:1035600:07:2136804:02:3829000:03:1034102:51:06 08:01:23 
350280 42MSteven LigaSpotswood NJ 36801:01:4033400:05:4236603:53:5435300:05:5234402:57:35 08:04:40 
351550NM34MJoseph FudgeGloucester VA  DNF37108:06:2926202:58:0119200:02:067601:44:29DNFDNF 
352401 49MRichard IsaacsAlexandria VA  DNF37007:58:4936103:32:5029900:03:2318702:01:24DNFDNF 
353191 37MBilly HughesGlenshaw PA 800:27:173800:02:07602:19:382600:01:001201:27:49DQDQ 
354319 44MMcCoy WeymouthChadds Ford PA           00:04:00  
355621BM54MGlenn StephensFalls Churchc VA 15400:35:4630300:04:5626302:58:02    00:04:00  
356197 37MGary SnowShelburne VT 1200:27:371600:01:52502:19:374300:01:11  DNF  
357182 36MMichael WarfieldFelton CA 20000:37:466200:02:2017502:47:287800:01:25  DNF  
358374 47MPhillip BanazekWatertown NY 32100:44:4426400:04:2114402:44:1218600:02:03  DNF  
359275 42MJason GeorgeFalls Church VA 24100:39:4126100:04:2027302:59:3421300:02:17  DNF  
360508C39MLance NoblesReston VA 29500:41:5816300:03:1734203:19:3328200:02:59  DNF  
361372 47MJoey AbbottChesapeake VA 27900:41:0322100:03:5235303:28:02    DNF  
362432 50MKevin LawrenceStafford VA 36200:53:2635000:06:3237004:28:38    DNF  
363112 33MAlvaro De La CuevaArlington VA 7100:31:59500:01:38      DNF  
364554NM24MDavid MustianRichmond VA 29600:42:0136600:09:4436904:20:37    DNF  
365480 56MWilliam CarlinFredericksburg VA  DNF        DNF  
366578BM48MMark RaifordAmissville VA 19500:37:2818200:03:2733803:18:10       
367583BM30MBruce JenkinsMcKeesport PA 12800:34:478800:02:361402:24:32       
368219BM39MAustin PerezSilver Spring MD 30700:43:0217700:03:248202:38:14       
369574BM57MRob ColburnAshburn VA 8100:32:424700:02:109902:40:35       
370581BM39MRyan StilleOakton VA 2500:29:413900:02:0710202:40:56       
371579BM42MChuck PotterGermantown MD 21800:38:409400:02:4010902:41:27       
PlaceBibCoAgSNAMEcity/stateDQRankSWIMRankT1RankBIKERankT2RankRUNPENALTYTIMEDQ
372575BM55MDan PattersonWake Forest NC 16200:36:0212500:02:5815102:45:21       
373576BM55MRoy RumseyFairfax VA 25000:40:0734900:06:3018402:48:31       
374577BM54MBill GaryAshland VA 9700:33:229200:02:3919302:49:42       

** Results are for the private use of participants and are the Intellectual Property of Set Up Events. Unauthorized use of these results is prohibited.